Easton, WA (98925)

6:00 AM PST on February 14, 2016 (GMT -0800)
Cle Elum Wa - GiddyLodge | | Change Station
CLOSE
Current Station
Personal Weather Station
Location: Cle Elum, WA
Elevation: 2117 ft
Nearby Weather Stations

Elev 2117 ft 47.21 °N, 121.11 °W | Updated 3 minutes ago

Partly Cloudy
Partly Cloudy
39.4 °F
Feels Like 39 °F
N
1.0
Wind Variable Wind from West
Gusts 11.0 mph

Today
High -- | Low -- °F
--% Chance of Precip.
Yesterday
High -- | Low -- °F
Precip. -- in
Pressure 30.08 in
Visibility 10.0 miles
Clouds Clear
Windchill 39 °F
Dew Point 38 °F
Humidity 96%
Rainfall 0.09 in
Snow Depth Not available.
7:11 AM 5:26 PM
Waxing Crescent, 42% visible
METAR KELN 141353Z AUTO 13004KT 10SM CLR 02/M01 A3004 RMK AO2 SLP185 T00221006 $
Pressure 30.08 in
Visibility 10.0 miles
Clouds Clear
Windchill 39 °F
Dew Point 38 °F
Humidity 96%
Rainfall 0.09 in
Snow Depth Not available.
7:11 AM 5:26 PM
Waxing Crescent, 42% visible
METAR KELN 141353Z AUTO 13004KT 10SM CLR 02/M01 A3004 RMK AO2 SLP185 T00221006 $

10-Day Weather Forecast

Almanac

Astronomy

Feb. 14, 2016 Rise Set
Actual Time
Civil Twilight
Nautical Twilight
Astronomical Twilight
Moon
Length of Visible Light
Length of Day
Tomorrow will be .
, % of the Moon is Illuminated

Today's Extremes

State Highs State Lows

Community

WunderPhotos

Upload Photos

1,892,793 photos uploaded!

WunderBlog® & News

Nearby

Air Quality

  Air Quality AQ Index Pollutant
Not available.

Snow Depth

Station Depth Elevation

Earthquake Activity

City Distance Mag. Time & Date
Minimum magnitude displayed is 2.5.

Coastal Water Temperatures

Place Temperature

Stations

Nearby Weather Stations

Station Location Temp. Windchill Dew Point Humidity Wind Precip. Elev Updated Type
                   

Watches & Warnings

There are currently no watches in effect.